Time;durP1;ratioP1;P1;durP2;ratioP2;P2;SDS_P1;SDS_P2;PMS_P1;PMS_P2;Temp;Humidity;BMP_temperature;BMP_pressure;BME280_temperature;BME280_humidity;BME280_pressure;Samples;Min_cycle;Max_cycle;Signal;HPM_P1;HPM_P2
2021/05/16 00:01:11;;;;;;;12.52;6.65;;;15.30;78.60;;;;;;5062281;28;20415;-74
2021/05/16 00:03:38;;;;;;;10.02;6.00;;;15.40;78.70;;;;;;5055291;28;20108;-74
2021/05/16 00:06:04;;;;;;;10.75;6.13;;;15.40;78.70;;;;;;5050966;28;20033;-74
2021/05/16 00:08:30;;;;;;;10.13;5.68;;;14.90;78.40;;;;;;5066683;28;20063;-74
2021/05/16 00:10:56;;;;;;;10.27;6.55;;;15.40;78.80;;;;;;5053086;28;20060;-74
2021/05/16 00:13:22;;;;;;;10.88;6.60;;;15.40;78.80;;;;;;5053166;28;20079;-75
2021/05/16 00:15:51;;;;;;;18.65;8.07;;;15.50;78.80;;;;;;5094444;28;20101;-74
2021/05/16 00:18:17;;;;;;;12.98;6.75;;;15.50;78.70;;;;;;5055492;28;20087;-74
2021/05/16 00:20:43;;;;;;;14.68;7.45;;;15.40;78.60;;;;;;5054255;28;20508;-74
2021/05/16 00:23:09;;;;;;;13.05;7.15;;;15.40;78.70;;;;;;5061331;28;20033;-75
2021/05/16 00:25:35;;;;;;;12.90;7.05;;;15.40;78.60;;;;;;5057209;28;20090;-75
2021/05/16 00:28:01;;;;;;;11.35;6.55;;;15.40;78.70;;;;;;5050945;28;20048;-75
2021/05/16 00:30:27;;;;;;;12.50;7.40;;;15.40;78.80;;;;;;5053093;28;20033;-74
2021/05/16 00:32:55;;;;;;;19.95;7.53;;;15.40;78.80;;;;;;5060652;28;20039;-73
2021/05/16 00:35:23;;;;;;;15.50;7.97;;;15.40;78.90;;;;;;5056161;28;20017;-75
2021/05/16 00:37:50;;;;;;;11.52;7.07;;;15.40;79.00;;;;;;5084553;28;20049;-75
2021/05/16 00:40:17;;;;;;;12.65;6.72;;;15.30;78.90;;;;;;5052395;28;20029;-75
2021/05/16 00:42:44;;;;;;;12.68;6.45;;;15.30;79.00;;;;;;5070978;28;20040;-75
2021/05/16 00:45:15;;;;;;;13.00;6.43;;;15.30;79.00;;;;;;5053932;28;20414;-75
2021/05/16 00:47:50;;;;;;;17.33;7.45;;;15.30;79.00;;;;;;5059584;28;20029;-75
2021/05/16 00:50:17;;;;;;;16.33;5.68;;;15.40;79.10;;;;;;5060104;28;20032;-75
2021/05/16 00:52:44;;;;;;;13.10;6.32;;;15.40;79.20;;;;;;5059109;28;20155;-75
2021/05/16 00:55:11;;;;;;;15.52;6.20;;;15.40;79.10;;;;;;5051592;28;20029;-75
2021/05/16 00:57:38;;;;;;;11.25;6.40;;;15.40;79.10;;;;;;5061230;28;20036;-75
2021/05/16 01:00:06;;;;;;;13.85;6.25;;;15.40;79.20;;;;;;5056770;28;20150;-75
2021/05/16 01:02:32;;;;;;;12.00;6.20;;;15.40;79.20;;;;;;5068445;28;20048;-75
2021/05/16 01:04:57;;;;;;;15.65;7.22;;;15.40;79.10;;;;;;5061521;28;20032;-75
2021/05/16 01:07:23;;;;;;;18.38;7.60;;;15.40;79.10;;;;;;5050474;28;20463;-74
2021/05/16 01:09:49;;;;;;;14.10;7.10;;;15.40;79.30;;;;;;5061909;28;20408;-75
2021/05/16 01:12:16;;;;;;;13.85;7.22;;;15.30;79.40;;;;;;5061922;28;20037;-75
2021/05/16 01:14:44;;;;;;;20.02;7.40;;;15.30;79.40;;;;;;5050694;28;20451;-75
2021/05/16 01:17:10;;;;;;;15.10;6.97;;;15.30;79.40;;;;;;5056129;28;20127;-75
2021/05/16 01:19:36;;;;;;;15.02;7.78;;;15.20;79.50;;;;;;5064034;28;20033;-75
2021/05/16 01:22:05;;;;;;;17.98;7.03;;;15.20;79.70;;;;;;5061240;28;20051;-75
2021/05/16 01:24:31;;;;;;;20.35;6.80;;;15.20;79.80;;;;;;5049762;28;20143;-75
2021/05/16 01:26:59;;;;;;;11.10;5.10;;;15.30;79.80;;;;;;5059539;28;20029;-75
2021/05/16 01:29:25;;;;;;;12.52;5.68;;;15.30;79.80;;;;;;5053789;28;20025;-75
2021/05/16 01:31:51;;;;;;;15.30;6.10;;;15.30;80.00;;;;;;5051342;28;20087;-75
2021/05/16 01:34:17;;;;;;;15.27;5.90;;;15.30;80.00;;;;;;5049650;28;20084;-75
2021/05/16 01:36:42;;;;;;;14.93;6.45;;;15.30;80.00;;;;;;5033772;28;20514;-75
2021/05/16 01:39:12;;;;;;;18.92;7.25;;;15.60;80.20;;;;;;5069781;28;20064;-75
2021/05/16 01:41:39;;;;;;;15.80;7.18;;;15.40;79.90;;;;;;5056672;28;20044;-75
2021/05/16 01:44:05;;;;;;;14.02;7.15;;;15.40;79.80;;;;;;5051858;28;20104;-75
2021/05/16 01:46:32;;;;;;;13.48;5.65;;;15.40;79.90;;;;;;5050133;28;20481;-74
2021/05/16 01:48:58;;;;;;;15.32;6.75;;;15.40;79.90;;;;;;5082588;28;20056;-75
2021/05/16 01:51:24;;;;;;;16.13;7.07;;;15.40;79.80;;;;;;5051786;28;20179;-74
2021/05/16 01:53:50;;;;;;;17.48;6.43;;;15.40;79.60;;;;;;5056858;28;20467;-75
2021/05/16 01:56:28;;;;;;;16.48;6.40;;;15.40;79.60;;;;;;5058025;28;20040;-74
2021/05/16 01:58:55;;;;;;;20.15;7.43;;;15.40;79.50;;;;;;5065310;28;20603;-74
2021/05/16 02:01:21;;;;;;;15.93;6.70;;;15.40;79.70;;;;;;5061150;28;20045;-74
2021/05/16 02:03:47;;;;;;;35.38;7.38;;;15.30;79.60;;;;;;5066498;28;20042;-74
2021/05/16 02:06:16;;;;;;;20.80;6.78;;;15.30;79.60;;;;;;5064363;28;20112;-74
2021/05/16 02:08:44;;;;;;;14.93;7.07;;;15.30;79.60;;;;;;5060592;28;20032;-75
2021/05/16 02:11:10;;;;;;;18.23;8.07;;;15.30;79.70;;;;;;5067879;28;20148;-74
2021/05/16 02:13:38;;;;;;;20.23;6.95;;;15.30;79.70;;;;;;5059008;28;20028;-74
2021/05/16 02:16:06;;;;;;;27.08;8.63;;;15.30;79.70;;;;;;5053506;28;20165;-74
2021/05/16 02:18:32;;;;;;;17.15;7.45;;;15.30;79.60;;;;;;5051134;28;20506;-74
2021/05/16 02:20:58;;;;;;;15.25;6.30;;;15.30;79.60;;;;;;5061466;28;20029;-74
2021/05/16 02:23:23;;;;;;;15.85;7.43;;;15.30;79.60;;;;;;5049232;28;20147;-74
2021/05/16 02:25:50;;;;;;;19.48;7.85;;;15.30;79.50;;;;;;5057151;28;20040;-74
2021/05/16 02:28:17;;;;;;;21.50;8.10;;;15.30;79.50;;;;;;5060594;28;20348;-74
2021/05/16 02:30:43;;;;;;;22.90;7.75;;;15.30;79.60;;;;;;5050749;28;20029;-74
2021/05/16 02:33:09;;;;;;;20.35;6.82;;;15.30;79.50;;;;;;5056826;28;20033;-74
2021/05/16 02:35:35;;;;;;;28.90;7.68;;;15.20;79.40;;;;;;5032279;28;20032;-74
2021/05/16 02:38:00;;;;;;;20.75;7.05;;;15.20;79.50;;;;;;5050606;28;20037;-74
2021/05/16 02:40:26;;;;;;;15.95;6.95;;;15.20;79.50;;;;;;5056407;28;20551;-73
2021/05/16 02:42:52;;;;;;;17.65;6.32;;;15.20;79.60;;;;;;5065241;28;20493;-74
2021/05/16 02:45:18;;;;;;;29.75;7.20;;;15.20;79.60;;;;;;5049937;28;20393;-74
2021/05/16 02:47:43;;;;;;;19.98;7.03;;;15.20;79.50;;;;;;5056605;28;20482;-74
2021/05/16 02:50:11;;;;;;;21.75;7.78;;;15.20;79.60;;;;;;5058770;28;20032;-74
2021/05/16 02:52:37;;;;;;;16.48;7.00;;;15.20;79.50;;;;;;5062472;28;20031;-74
2021/05/16 02:55:04;;;;;;;21.60;6.97;;;15.20;79.40;;;;;;5054881;28;20036;-74
2021/05/16 02:57:29;;;;;;;24.35;8.30;;;15.20;79.50;;;;;;5063515;28;20048;-74
2021/05/16 02:59:55;;;;;;;21.73;7.15;;;15.20;79.50;;;;;;5051503;28;20049;-74
2021/05/16 03:02:21;;;;;;;25.02;7.55;;;15.20;79.50;;;;;;5054386;28;20458;-74
2021/05/16 03:04:47;;;;;;;22.05;8.35;;;15.10;79.40;;;;;;5048245;28;20040;-75
2021/05/16 03:07:12;;;;;;;19.40;7.45;;;15.10;79.40;;;;;;5049121;28;20033;-74
2021/05/16 03:09:38;;;;;;;21.65;7.90;;;15.10;79.40;;;;;;5057089;28;20043;-74
2021/05/16 03:12:05;;;;;;;22.88;7.72;;;15.10;79.30;;;;;;5058314;28;20048;-75
2021/05/16 03:14:31;;;;;;;26.25;8.25;;;15.10;79.20;;;;;;5052102;28;20036;-74
2021/05/16 03:16:58;;;;;;;15.15;7.50;;;15.10;79.20;;;;;;5063005;28;20126;-74
2021/05/16 03:19:25;;;;;;;19.08;6.97;;;15.20;79.30;;;;;;5061434;28;20029;-74
2021/05/16 03:21:50;;;;;;;20.48;6.47;;;15.20;79.30;;;;;;5050041;28;20033;-74
2021/05/16 03:24:16;;;;;;;15.40;6.80;;;15.20;79.40;;;;;;5049444;28;20103;-74
2021/05/16 03:26:42;;;;;;;19.63;7.30;;;15.20;79.20;;;;;;5049828;28;20037;-74
2021/05/16 03:29:08;;;;;;;20.60;6.82;;;15.20;79.10;;;;;;5060929;28;20025;-74
2021/05/16 03:31:34;;;;;;;25.60;7.53;;;15.20;79.00;;;;;;5062024;28;20032;-74
2021/05/16 03:34:00;;;;;;;24.48;7.72;;;15.20;78.80;;;;;;5053720;28;20040;-74
2021/05/16 03:36:25;;;;;;;35.92;7.68;;;15.20;78.90;;;;;;5048751;28;20036;-74
2021/05/16 03:38:51;;;;;;;19.63;6.53;;;15.10;78.80;;;;;;5060659;28;20685;-74
2021/05/16 03:41:17;;;;;;;19.38;6.82;;;15.20;79.00;;;;;;5041688;28;20032;-74
2021/05/16 03:43:44;;;;;;;18.00;7.20;;;15.20;79.00;;;;;;5053303;28;20040;-74
2021/05/16 03:46:10;;;;;;;16.42;6.53;;;15.20;78.80;;;;;;5048073;28;20040;-74
2021/05/16 03:48:36;;;;;;;24.30;7.72;;;15.20;78.80;;;;;;5055821;28;20037;-74
2021/05/16 03:51:02;;;;;;;19.20;7.88;;;15.20;78.70;;;;;;5071906;28;20584;-74
2021/05/16 03:53:28;;;;;;;17.52;7.90;;;15.10;78.60;;;;;;5056736;28;20029;-74
2021/05/16 03:55:54;;;;;;;18.65;8.23;;;15.10;78.60;;;;;;5041302;28;20035;-75
2021/05/16 03:58:19;;;;;;;26.75;8.10;;;15.10;78.80;;;;;;5056611;28;20067;-75
2021/05/16 04:00:45;;;;;;;25.00;8.10;;;15.10;78.80;;;;;;5057374;28;20036;-75
2021/05/16 04:03:10;;;;;;;22.55;8.38;;;15.10;78.70;;;;;;5051758;28;20045;-74
2021/05/16 04:05:36;;;;;;;22.02;7.93;;;15.10;78.70;;;;;;5057393;28;20478;-74
2021/05/16 04:08:02;;;;;;;19.67;7.18;;;15.10;78.70;;;;;;5067393;28;20033;-74
2021/05/16 04:10:28;;;;;;;22.65;8.45;;;15.10;78.60;;;;;;5053915;28;20467;-74
2021/05/16 04:12:53;;;;;;;22.80;9.65;;;15.00;78.70;;;;;;5062233;28;20375;-74
2021/05/16 04:15:19;;;;;;;22.08;9.43;;;15.00;78.80;;;;;;5069527;28;20037;-74
2021/05/16 04:17:44;;;;;;;26.25;11.20;;;15.00;78.70;;;;;;5067338;28;20033;-74
2021/05/16 04:20:10;;;;;;;24.20;9.20;;;15.00;78.70;;;;;;5071411;28;20418;-75
2021/05/16 04:22:36;;;;;;;19.60;8.18;;;15.00;78.80;;;;;;5058125;28;20040;-74
2021/05/16 04:25:03;;;;;;;25.38;10.43;;;15.00;78.90;;;;;;5054409;28;20522;-74
2021/05/16 04:27:29;;;;;;;25.35;10.20;;;15.00;78.80;;;;;;5052618;28;20563;-74
2021/05/16 04:29:55;;;;;;;23.67;9.30;;;15.00;78.80;;;;;;5051613;28;20485;-74
2021/05/16 04:32:20;;;;;;;24.80;8.85;;;15.00;78.80;;;;;;5099624;28;20033;-74
2021/05/16 04:34:46;;;;;;;28.08;10.15;;;15.00;78.80;;;;;;5071346;28;20031;-74
2021/05/16 04:37:12;;;;;;;29.92;10.85;;;15.00;78.70;;;;;;5057309;28;20071;-74
2021/05/16 04:39:38;;;;;;;30.73;10.23;;;15.00;78.80;;;;;;5064055;28;20086;-74
2021/05/16 04:42:04;;;;;;;30.60;11.90;;;15.10;78.60;;;;;;5081674;28;20082;-74
2021/05/16 04:44:30;;;;;;;23.25;10.68;;;15.00;78.40;;;;;;5063375;28;20074;-74
2021/05/16 04:46:56;;;;;;;32.45;12.45;;;15.00;78.50;;;;;;5072627;28;20038;-74
2021/05/16 04:49:22;;;;;;;26.25;9.65;;;15.10;78.60;;;;;;5069833;28;20025;-74
2021/05/16 04:51:48;;;;;;;26.77;11.48;;;15.00;78.40;;;;;;5048707;28;20075;-73
2021/05/16 04:54:14;;;;;;;27.85;10.75;;;15.00;78.50;;;;;;5052193;28;20108;-74
2021/05/16 04:56:39;;;;;;;24.83;10.38;;;15.00;78.60;;;;;;5062458;28;20439;-73
2021/05/16 04:59:06;;;;;;;25.50;10.15;;;15.00;78.70;;;;;;5067527;28;20072;-74
2021/05/16 05:01:32;;;;;;;28.88;10.50;;;15.00;78.70;;;;;;5052937;28;20044;-74
2021/05/16 05:03:58;;;;;;;20.17;9.18;;;15.00;78.50;;;;;;5052123;28;20028;-74
2021/05/16 05:06:25;;;;;;;31.38;10.60;;;15.00;78.50;;;;;;5049582;28;20036;-74
2021/05/16 05:08:51;;;;;;;25.33;10.10;;;15.00;78.50;;;;;;5064652;28;20139;-74
2021/05/16 05:11:17;;;;;;;28.33;11.55;;;15.10;78.50;;;;;;5094499;28;20119;-74
2021/05/16 05:13:44;;;;;;;26.80;10.70;;;15.10;78.40;;;;;;5052626;28;20039;-74
2021/05/16 05:16:09;;;;;;;38.45;12.32;;;15.10;78.20;;;;;;5051196;28;20482;-74
2021/05/16 05:18:35;;;;;;;30.73;12.88;;;15.00;78.20;;;;;;5067766;28;20115;-74
2021/05/16 05:21:01;;;;;;;27.17;10.90;;;15.00;78.20;;;;;;5043038;28;20415;-74
2021/05/16 05:23:27;;;;;;;26.15;9.88;;;15.00;78.20;;;;;;5052165;28;20407;-74
2021/05/16 05:25:56;;;;;;;37.20;12.88;;;15.10;78.40;;;;;;5053569;28;20048;-75
2021/05/16 05:28:22;;;;;;;27.05;11.27;;;15.10;78.30;;;;;;5068380;28;20127;-74
2021/05/16 05:30:47;;;;;;;23.52;11.27;;;15.10;78.20;;;;;;5041223;28;20119;-74
2021/05/16 05:33:13;;;;;;;23.15;10.23;;;15.10;78.10;;;;;;5048787;28;20033;-74
2021/05/16 05:35:39;;;;;;;24.17;10.32;;;15.10;78.20;;;;;;5043714;28;20037;-74
2021/05/16 05:38:05;;;;;;;16.63;8.55;;;15.20;78.30;;;;;;5066124;28;20059;-74
2021/05/16 05:40:31;;;;;;;39.47;12.13;;;15.20;78.30;;;;;;5038664;28;20118;-74
2021/05/16 05:42:56;;;;;;;21.45;10.13;;;15.20;78.20;;;;;;5059498;28;20044;-74
2021/05/16 05:45:22;;;;;;;23.98;11.40;;;15.30;77.80;;;;;;5069566;28;20040;-74
2021/05/16 05:47:47;;;;;;;23.00;11.38;;;15.20;77.60;;;;;;5061906;28;20039;-74
2021/05/16 05:50:13;;;;;;;27.40;11.15;;;15.20;77.90;;;;;;5053775;28;20439;-74
2021/05/16 05:52:39;;;;;;;29.90;11.02;;;15.20;77.90;;;;;;5063000;28;20044;-74
2021/05/16 05:55:05;;;;;;;25.77;11.32;;;15.20;77.70;;;;;;5050552;28;20383;-74
2021/05/16 05:57:31;;;;;;;24.50;10.68;;;15.20;77.60;;;;;;5066418;28;20028;-74
2021/05/16 05:59:57;;;;;;;22.15;11.02;;;15.30;77.70;;;;;;5058368;28;20531;-74
2021/05/16 06:02:22;;;;;;;27.25;11.68;;;15.30;77.60;;;;;;5067946;28;20036;-74
2021/05/16 06:04:48;;;;;;;21.80;10.63;;;15.30;77.60;;;;;;5068937;28;20063;-74
2021/05/16 06:07:14;;;;;;;32.13;11.82;;;15.40;77.60;;;;;;5064152;28;20060;-74
2021/05/16 06:09:39;;;;;;;21.75;11.43;;;15.40;77.50;;;;;;5053736;28;20367;-74
2021/05/16 06:12:06;;;;;;;31.58;10.88;;;15.40;77.50;;;;;;5055952;28;20127;-73
2021/05/16 06:14:33;;;;;;;24.05;10.70;;;15.40;77.40;;;;;;5051718;28;20033;-73
2021/05/16 06:16:58;;;;;;;25.17;11.35;;;15.40;77.40;;;;;;5052179;28;20024;-73
2021/05/16 06:19:24;;;;;;;23.45;12.88;;;15.40;77.30;;;;;;5061427;28;20109;-73
2021/05/16 06:21:50;;;;;;;29.25;13.30;;;15.40;77.00;;;;;;5068350;28;20033;-74
2021/05/16 06:24:16;;;;;;;26.42;13.75;;;15.40;77.00;;;;;;5069451;28;20483;-73
2021/05/16 06:26:43;;;;;;;26.52;12.00;;;15.40;77.10;;;;;;5053327;28;20062;-74
2021/05/16 06:29:10;;;;;;;35.45;14.07;;;15.50;77.10;;;;;;5055629;28;20492;-74
2021/05/16 06:31:36;;;;;;;37.05;14.63;;;15.60;77.00;;;;;;5064169;28;20029;-75
2021/05/16 06:34:03;;;;;;;25.65;12.43;;;15.70;76.80;;;;;;5065876;28;20028;-74
2021/05/16 06:36:29;;;;;;;26.45;13.38;;;15.70;76.90;;;;;;5067136;28;20423;-74
2021/05/16 06:38:55;;;;;;;35.63;14.20;;;15.80;76.40;;;;;;5048472;28;20163;-74
2021/05/16 06:41:23;;;;;;;35.78;15.02;;;15.80;76.20;;;;;;5055869;28;20036;-74
2021/05/16 06:43:53;;;;;;;29.35;13.05;;;15.80;76.00;;;;;;5052771;28;20032;-74
2021/05/16 06:46:20;;;;;;;30.80;11.75;;;15.80;75.90;;;;;;5061313;28;20166;-74
2021/05/16 06:48:45;;;;;;;25.52;14.63;;;15.80;75.50;;;;;;5050074;28;20384;-73
2021/05/16 06:51:12;;;;;;;40.90;14.70;;;15.80;75.50;;;;;;5050170;28;20029;-74
2021/05/16 06:53:39;;;;;;;29.00;13.55;;;15.90;76.00;;;;;;5051225;28;20470;-74
2021/05/16 06:56:07;;;;;;;25.75;11.35;;;16.00;76.00;;;;;;5061925;28;20036;-73
2021/05/16 06:58:33;;;;;;;26.58;12.30;;;16.20;75.70;;;;;;5055672;28;20029;-73
2021/05/16 07:00:58;;;;;;;26.65;12.38;;;16.40;75.40;;;;;;5056893;28;20471;-73
2021/05/16 07:03:24;;;;;;;23.20;11.02;;;16.50;74.80;;;;;;5049477;28;20048;-73
2021/05/16 07:05:50;;;;;;;27.88;11.85;;;16.60;73.70;;;;;;5047949;28;20478;-73
2021/05/16 07:08:15;;;;;;;26.58;11.38;;;16.70;73.70;;;;;;5084509;28;20393;-74
2021/05/16 07:10:41;;;;;;;29.63;11.88;;;16.80;73.50;;;;;;5068185;28;20124;-74
2021/05/16 07:13:06;;;;;;;21.67;9.68;;;16.90;73.30;;;;;;5059374;28;20047;-74
2021/05/16 07:15:33;;;;;;;22.38;10.27;;;17.10;73.90;;;;;;5051147;28;20086;-74
2021/05/16 07:17:58;;;;;;;25.95;10.27;;;17.50;73.80;;;;;;5059848;28;20036;-75
2021/05/16 07:20:24;;;;;;;24.02;9.90;;;18.00;71.80;;;;;;5044941;28;20036;-76
2021/05/16 07:22:50;;;;;;;21.23;8.23;;;18.40;71.00;;;;;;5064812;28;20047;-75
2021/05/16 07:25:17;;;;;;;19.45;8.10;;;18.70;69.00;;;;;;5066407;28;20063;-75
2021/05/16 07:27:44;;;;;;;21.08;9.13;;;18.70;68.40;;;;;;5064720;28;20037;-76
2021/05/16 07:30:10;;;;;;;24.67;9.40;;;18.70;67.90;;;;;;5067155;28;20108;-77
2021/05/16 07:32:36;;;;;;;24.23;9.73;;;18.60;66.30;;;;;;5065483;28;20093;-75
2021/05/16 07:35:02;;;;;;;19.90;9.73;;;18.60;66.00;;;;;;5066305;28;20470;-75
2021/05/16 07:37:28;;;;;;;26.38;10.20;;;18.50;65.60;;;;;;5063660;28;20466;-75
2021/05/16 07:39:53;;;;;;;26.75;10.05;;;18.30;66.20;;;;;;5068465;28;20056;-75
2021/05/16 07:42:19;;;;;;;24.27;9.27;;;18.10;66.30;;;;;;5062249;28;20083;-76
2021/05/16 07:44:44;;;;;;;25.02;9.52;;;17.90;67.00;;;;;;5054660;28;20033;-76
2021/05/16 07:47:10;;;;;;;22.08;8.70;;;17.70;67.50;;;;;;5067992;28;20489;-76
2021/05/16 07:49:36;;;;;;;17.23;8.45;;;17.60;68.20;;;;;;5050466;28;20463;-75
2021/05/16 07:52:03;;;;;;;20.83;9.13;;;17.50;68.30;;;;;;5054422;28;20087;-77
2021/05/16 07:54:29;;;;;;;19.65;8.95;;;17.40;68.70;;;;;;5061111;28;20035;-76
2021/05/16 07:56:57;;;;;;;18.20;8.90;;;17.20;68.70;;;;;;5057744;28;20079;-74
2021/05/16 07:59:23;;;;;;;17.80;8.40;;;17.20;69.00;;;;;;5052155;28;20436;-74
2021/05/16 08:01:49;;;;;;;24.48;10.55;;;17.10;68.90;;;;;;5057451;28;20489;-75
2021/05/16 08:04:15;;;;;;;22.05;8.88;;;17.10;68.70;;;;;;5051700;28;20040;-75
2021/05/16 08:06:40;;;;;;;16.95;9.35;;;17.20;68.50;;;;;;5061255;28;20048;-74
2021/05/16 08:09:06;;;;;;;27.27;10.48;;;17.30;68.50;;;;;;5063640;28;20056;-73
2021/05/16 08:11:32;;;;;;;18.75;10.57;;;17.30;68.20;;;;;;5054496;28;20494;-74
2021/05/16 08:13:57;;;;;;;20.73;10.32;;;17.30;68.30;;;;;;5048120;28;20138;-76
2021/05/16 08:16:23;;;;;;;25.58;12.43;;;17.30;68.10;;;;;;5062802;28;20036;-74
2021/05/16 08:18:51;;;;;;;21.45;11.20;;;17.40;68.00;;;;;;5067854;28;20169;-76
2021/05/16 08:21:17;;;;;;;25.52;13.88;;;17.50;67.60;;;;;;5069894;28;20082;-73
2021/05/16 08:23:42;;;;;;;23.77;11.98;;;17.60;67.30;;;;;;5051940;28;20335;-75
2021/05/16 08:26:08;;;;;;;26.27;12.30;;;17.80;67.20;;;;;;5050204;28;20446;-75
2021/05/16 08:28:34;;;;;;;22.23;13.32;;;17.90;66.40;;;;;;5063008;28;20104;-75
2021/05/16 08:30:59;;;;;;;25.63;12.98;;;18.10;66.50;;;;;;5051020;28;20451;-76
2021/05/16 08:33:25;;;;;;;25.73;12.30;;;18.20;66.50;;;;;;5058943;28;20047;-74
2021/05/16 08:35:51;;;;;;;21.58;11.63;;;18.30;65.90;;;;;;5061633;28;20252;-75
2021/05/16 08:38:17;;;;;;;25.95;13.35;;;18.40;65.00;;;;;;5062876;28;20012;-74
2021/05/16 08:40:43;;;;;;;23.63;11.48;;;18.40;65.20;;;;;;5058442;28;20098;-74
2021/05/16 08:43:09;;;;;;;27.30;12.27;;;18.50;65.20;;;;;;5071433;28;20075;-74
2021/05/16 08:45:35;;;;;;;21.30;11.38;;;18.50;66.20;;;;;;5065230;28;20036;-74
2021/05/16 08:48:01;;;;;;;23.25;12.20;;;18.60;66.70;;;;;;5051061;28;20117;-74
2021/05/16 08:50:27;;;;;;;24.80;11.90;;;18.80;66.80;;;;;;5061558;28;20485;-74
2021/05/16 08:52:54;;;;;;;23.05;10.95;;;19.00;66.20;;;;;;5068122;28;20039;-78
2021/05/16 08:55:20;;;;;;;23.25;11.45;;;19.30;66.00;;;;;;5059136;28;20081;-75
2021/05/16 08:57:46;;;;;;;25.65;11.73;;;19.80;64.80;;;;;;5057459;28;20463;-75
2021/05/16 09:00:26;;;;;;;21.33;11.23;;;20.00;62.90;;;;;;5061497;28;20048;-75
2021/05/16 09:03:05;;;;;;;23.70;11.38;;;20.10;61.50;;;;;;5062548;28;20075;-76
2021/05/16 09:05:38;;;;;;;18.88;11.43;;;20.40;61.70;;;;;;5063286;28;20028;-74
2021/05/16 09:08:11;;;;;;;25.05;12.02;;;20.80;59.80;;;;;;5065308;28;20028;-75
2021/05/16 09:10:37;;;;;;;26.05;12.82;;;21.40;58.80;;;;;;5066975;28;20017;-74
2021/05/16 09:13:18;;;;;;;19.38;10.35;;;21.80;56.80;;;;;;5069957;28;20036;-78
2021/05/16 09:15:58;;;;;;;21.95;10.55;;;22.10;54.90;;;;;;5059668;28;20024;-77
2021/05/16 09:18:42;;;;;;;17.27;9.48;;;22.30;55.10;;;;;;5067140;28;20032;-74
2021/05/16 09:21:34;;;;;;;19.23;9.18;;;22.10;54.40;;;;;;5063289;28;20032;-75
2021/05/16 09:23:59;;;;;;;18.83;10.23;;;21.80;54.40;;;;;;5062847;28;20525;-74
2021/05/16 09:26:28;;;;;;;17.42;9.02;;;21.80;54.00;;;;;;5066814;28;20036;-75
2021/05/16 09:28:54;;;;;;;18.63;10.02;;;21.70;54.70;;;;;;5065196;28;20025;-75
2021/05/16 09:31:34;;;;;;;14.85;8.60;;;22.70;53.30;;;;;;5067113;28;20397;-75
2021/05/16 09:34:09;;;;;;;14.55;8.52;;;23.30;53.30;;;;;;5061449;28;20028;-75
2021/05/16 09:36:36;;;;;;;18.95;9.30;;;23.80;50.10;;;;;;5065857;28;20035;-75
2021/05/16 09:39:22;;;;;;;17.88;8.43;;;23.90;50.20;;;;;;5063332;28;20048;-74
2021/05/16 09:42:14;;;;;;;19.60;7.80;;;24.00;49.60;;;;;;5061703;28;20036;-75
2021/05/16 09:44:45;;;;;;;17.93;8.80;;;23.90;49.00;;;;;;5061223;28;20444;-74
2021/05/16 09:47:27;;;;;;;14.32;7.43;;;23.60;47.50;;;;;;5062399;28;20372;-75
2021/05/16 09:50:01;;;;;;;19.65;9.10;;;23.50;48.80;;;;;;5058337;28;20131;-76
2021/05/16 09:52:31;;;;;;;18.65;7.95;;;23.50;49.60;;;;;;5047230;28;20032;-73
2021/05/16 09:55:08;;;;;;;14.23;6.80;;;23.70;49.00;;;;;;5050389;28;20024;-76
2021/05/16 09:57:39;;;;;;;17.50;8.05;;;23.90;48.80;;;;;;5062640;28;20056;-76
2021/05/16 10:00:23;;;;;;;14.95;6.78;;;24.00;47.20;;;;;;5055970;28;20132;-76
2021/05/16 10:02:49;;;;;;;11.15;5.60;;;24.20;47.80;;;;;;5048517;28;20034;-76
2021/05/16 10:05:15;;;;;;;12.95;6.22;;;24.60;48.40;;;;;;5054224;28;20411;-75
2021/05/16 10:07:42;;;;;;;17.15;6.43;;;25.00;45.60;;;;;;5073883;28;20032;-75
2021/05/16 10:10:08;;;;;;;17.17;5.90;;;25.10;44.60;;;;;;5061068;28;20379;-77
2021/05/16 10:12:37;;;;;;;13.73;4.88;;;25.30;46.00;;;;;;5065328;28;20056;-77
2021/05/16 10:15:08;;;;;;;12.82;5.57;;;25.60;45.10;;;;;;5068638;28;20093;-77
2021/05/16 10:17:36;;;;;;;13.75;5.30;;;25.70;42.50;;;;;;5056843;28;20016;-75
2021/05/16 10:20:16;;;;;;;13.70;5.28;;;25.60;43.80;;;;;;5067119;28;20181;-76
2021/05/16 10:22:56;;;;;;;11.20;4.63;;;25.70;42.40;;;;;;5053398;28;20104;-76
2021/05/16 10:25:48;;;;;;;14.02;4.93;;;25.50;43.20;;;;;;5050396;28;20021;-76
2021/05/16 10:28:16;;;;;;;14.18;5.00;;;25.30;42.90;;;;;;5054852;28;20021;-75
2021/05/16 10:31:01;;;;;;;14.05;4.60;;;25.10;43.10;;;;;;5049495;28;20458;-77
2021/05/16 10:33:33;;;;;;;12.35;5.47;;;24.70;43.30;;;;;;5050169;28;20048;-76
2021/05/16 10:36:00;;;;;;;12.90;4.35;;;24.40;44.40;;;;;;5059655;28;20056;-76
2021/05/16 10:38:40;;;;;;;12.80;5.32;;;24.10;44.80;;;;;;5063687;28;20040;-76
2021/05/16 10:41:24;;;;;;;9.95;4.20;;;23.70;44.20;;;;;;5060420;28;20470;-75
2021/05/16 10:43:50;;;;;;;9.65;4.72;;;23.40;45.00;;;;;;5056425;28;20352;-76
2021/05/16 10:46:38;;;;;;;13.25;4.65;;;23.20;45.90;;;;;;5059979;28;20036;-76
2021/05/16 10:49:23;;;;;;;10.48;3.83;;;23.00;46.30;;;;;;5051431;28;20541;-76
2021/05/16 10:51:49;;;;;;;12.85;4.45;;;22.80;46.70;;;;;;5065859;28;20036;-77
2021/05/16 10:54:32;;;;;;;18.08;5.00;;;22.50;46.90;;;;;;5051582;28;20048;-75
2021/05/16 10:57:14;;;;;;;11.77;3.92;;;22.40;46.80;;;;;;5057642;28;20589;-76
2021/05/16 10:59:41;;;;;;;13.43;4.70;;;22.40;47.00;;;;;;5049169;28;20052;-75
2021/05/16 11:02:07;;;;;;;12.38;4.20;;;22.60;47.50;;;;;;5054126;28;20053;-75
2021/05/16 11:04:50;;;;;;;11.88;4.13;;;22.80;47.50;;;;;;5068365;28;20146;-76
2021/05/16 11:07:36;;;;;;;;;;;22.70;48.00;;;;;;5060841;28;20033;-76
2021/05/16 11:10:25;;;;;;;13.60;4.82;;;22.70;48.60;;;;;;5053880;28;19917;-76
2021/05/16 11:12:50;;;;;;;12.32;4.10;;;22.40;50.50;;;;;;5079193;28;20448;-76
2021/05/16 11:15:25;;;;;;;13.68;5.22;;;22.30;51.80;;;;;;5062523;28;20112;-76
2021/05/16 11:17:52;;;;;;;10.50;4.13;;;22.30;52.50;;;;;;5046331;28;20057;-75
2021/05/16 11:20:18;;;;;;;14.07;4.80;;;22.50;50.50;;;;;;5053418;28;20029;-75
2021/05/16 11:22:44;;;;;;;10.10;3.72;;;22.90;50.00;;;;;;5058399;28;20037;-75
2021/05/16 11:25:10;;;;;;;9.32;3.70;;;23.20;49.60;;;;;;5062619;28;20119;-76
2021/05/16 11:27:36;;;;;;;12.45;4.55;;;23.20;48.70;;;;;;5048856;28;20036;-76
2021/05/16 11:30:10;;;;;;;8.38;4.15;;;23.10;49.00;;;;;;5053642;28;20067;-75
2021/05/16 11:32:36;;;;;;;14.77;5.32;;;22.90;48.80;;;;;;5052608;28;20451;-76
2021/05/16 11:35:19;;;;;;;10.85;5.15;;;22.80;48.50;;;;;;5066833;28;20631;-76
2021/05/16 11:37:49;;;;;;;10.38;4.55;;;23.10;47.40;;;;;;5058101;28;20116;-75
2021/05/16 11:40:29;;;;;;;10.30;3.85;;;23.40;47.90;;;;;;5052540;28;20017;-75
2021/05/16 11:43:00;;;;;;;13.82;4.53;;;23.40;46.80;;;;;;5066726;28;20086;-76
2021/05/16 11:45:32;;;;;;;10.27;4.18;;;23.20;45.50;;;;;;5062640;28;20086;-76
2021/05/16 11:47:58;;;;;;;9.43;3.58;;;23.00;46.30;;;;;;5056936;28;20031;-76
2021/05/16 11:50:44;;;;;;;10.70;4.53;;;22.70;46.70;;;;;;5069282;28;20051;-76
2021/05/16 11:53:11;;;;;;;10.13;3.60;;;22.20;47.50;;;;;;5066812;28;20043;-75
2021/05/16 11:55:37;;;;;;;9.80;3.53;;;21.80;48.50;;;;;;5054882;28;20032;-75
2021/05/16 11:58:03;;;;;;;11.85;3.70;;;21.50;48.60;;;;;;5069155;28;20020;-74
2021/05/16 12:00:31;;;;;;;10.13;3.85;;;21.00;49.30;;;;;;5054099;28;20170;-75
2021/05/16 12:03:15;;;;;;;9.68;3.25;;;20.80;50.10;;;;;;5071161;28;20475;-76
2021/05/16 12:05:42;;;;;;;7.95;2.90;;;20.10;52.30;;;;;;5067074;28;20480;-76
2021/05/16 12:08:22;;;;;;;7.38;3.33;;;19.80;53.40;;;;;;5060292;28;20446;-76
2021/05/16 12:11:11;;;;;;;9.05;3.10;;;19.60;55.10;;;;;;5070514;28;20029;-75
2021/05/16 12:13:37;;;;;;;9.57;3.25;;;19.40;56.50;;;;;;5060925;28;20020;-76
2021/05/16 12:16:20;;;;;;;11.10;3.20;;;19.30;57.40;;;;;;5064472;28;20081;-76
2021/05/16 12:18:48;;;;;;;8.40;2.67;;;19.40;58.50;;;;;;5054096;28;20056;-76
2021/05/16 12:21:15;;;;;;;6.70;2.70;;;19.60;58.80;;;;;;5052626;28;20028;-76
2021/05/16 12:23:57;;;;;;;6.88;2.42;;;19.80;56.60;;;;;;5061928;28;20055;-76
2021/05/16 12:26:23;;;;;;;7.22;2.55;;;20.00;56.30;;;;;;5070432;28;20029;-75
2021/05/16 12:28:49;;;;;;;6.93;2.20;;;20.20;57.10;;;;;;5050688;28;20025;-75
2021/05/16 12:31:17;;;;;;;7.97;2.75;;;20.50;58.10;;;;;;5059776;28;20370;-74
2021/05/16 12:33:43;;;;;;;8.52;2.67;;;20.70;58.00;;;;;;5070333;28;20327;-72
2021/05/16 12:36:09;;;;;;;4.57;1.63;;;20.70;58.00;;;;;;5058517;28;20029;-73
2021/05/16 12:38:43;;;;;;;5.40;2.22;;;21.10;54.30;;;;;;5068941;28;20447;-74
2021/05/16 12:41:13;;;;;;;9.07;2.63;;;21.00;55.20;;;;;;5063207;28;20522;-74